Terminal Aerodrome Forecast
Issued by NWS Mt. Holly, NJ

Home | Current Version | Previous Version | Text Only | Print | Product List | Glossary On
Versions: 1 2 3 4 5 6 7 8 9 10 11 12
000
FTUS41 KPHI 221100
TAFTTN
TAF
KTTN 221120Z 2212/2312 23003KT P6SM SKC
     FM221500 25011KT P6SM SCT200
     FM222300 24005KT P6SM SCT060=

USA.gov is the U.S. government's official web portal to all federal, state and local government web resources and services.